Adairo, Ohio
Current Conditions -  °F | °C
As of 8:52 AM on Thursday 23 Oct 2014 (Local Time) from KMFD Reporting Station
Haze Haze  
Wind Chill: 38°   Ceiling: 300
Heat Index: 43°   Visibility: 4mi
Dew Point: 42°   Wind: 8mph
Humidity: 97%   Direction: 320°NW
Pressure: 30.22"   Gusts: NA
Location:  40.9484°N, 82.5121°W
Report Text: KMFD 231252Z 32007KT 4SM BR OVC003 06/06 A3022 RMK AO2 SLP241 T00610056
Loading
Personal Weather Stations






























Interactive Weather Map
Tropical Storm Tracking
New forecast layout! Learn more

10-Day Weather Forecast

Advertisements
Track Severe Weather on mobile